createdAt,value
2019-02-23T00:01:19.632Z,76.23
2019-02-23T00:04:25.410Z,75.74
2019-02-23T00:07:31.126Z,75.79
2019-02-23T00:10:36.864Z,75.98
2019-02-23T00:13:42.725Z,76.43
2019-02-23T00:16:48.540Z,76.71
2019-02-23T00:19:54.299Z,75.61
2019-02-23T00:23:00.180Z,76.55
2019-02-23T00:26:06.068Z,75.87
2019-02-23T00:29:11.818Z,76.05
2019-02-23T00:32:17.603Z,76.30
2019-02-23T00:35:23.370Z,75.09
2019-02-23T00:38:29.134Z,75.08
2019-02-23T00:41:34.962Z,74.41
2019-02-23T00:44:40.753Z,74.84
2019-02-23T00:47:46.499Z,75.76
2019-02-23T00:50:52.272Z,74.91
2019-02-23T00:53:58.018Z,74.62
2019-02-23T00:57:03.878Z,73.80
2019-02-23T01:00:11.661Z,73.65
2019-02-23T01:03:17.424Z,74.51
2019-02-23T01:06:23.159Z,75.10
2019-02-23T01:09:28.909Z,74.71
2019-02-23T01:12:34.887Z,74.98
2019-02-23T01:15:40.737Z,74.77
2019-02-23T01:18:47.601Z,73.91
2019-02-23T01:21:53.451Z,74.60
2019-02-23T01:24:59.221Z,73.71
2019-02-23T01:28:05.086Z,74.31
2019-02-23T01:31:10.874Z,74.76
2019-02-23T01:34:16.734Z,74.51
2019-02-23T01:37:22.590Z,73.48
2019-02-23T01:40:28.486Z,74.34
2019-02-23T01:43:34.244Z,75.18
2019-02-23T01:46:40.089Z,74.26
2019-02-23T01:49:45.853Z,74.11
2019-02-23T01:52:51.629Z,74.83
2019-02-23T01:55:57.488Z,74.90
2019-02-23T01:59:03.352Z,75.15
2019-02-23T02:02:10.005Z,74.53
2019-02-23T02:05:15.885Z,75.24
2019-02-23T02:08:21.788Z,74.10
2019-02-23T02:11:27.578Z,72.92
2019-02-23T02:14:33.331Z,73.31
2019-02-23T02:17:39.235Z,72.17
2019-02-23T02:20:45.014Z,72.13
2019-02-23T02:23:50.764Z,70.83
2019-02-23T02:26:56.587Z,69.87
2019-02-23T02:30:02.877Z,68.66
2019-02-23T02:33:08.736Z,66.43
2019-02-23T02:36:14.516Z,67.41
2019-02-23T02:39:20.296Z,67.73
2019-02-23T02:42:26.057Z,67.93
2019-02-23T02:45:31.801Z,67.21
2019-02-23T02:48:37.757Z,67.00
2019-02-23T02:51:43.505Z,66.75
2019-02-23T02:54:49.280Z,65.31
2019-02-23T02:57:55.195Z,65.65
2019-02-23T03:01:02.074Z,65.39
2019-02-23T03:04:07.869Z,65.30
2019-02-23T03:07:13.636Z,64.07
2019-02-23T03:10:19.500Z,63.48
2019-02-23T03:13:25.336Z,63.44
2019-02-23T03:16:31.110Z,65.56
2019-02-23T03:19:37.030Z,64.37
2019-02-23T03:22:43.879Z,64.16
2019-02-23T03:25:49.659Z,64.08
2019-02-23T03:28:55.908Z,63.73
2019-02-23T03:32:01.678Z,65.54
2019-02-23T03:35:07.626Z,64.54
2019-02-23T03:38:13.452Z,65.03
2019-02-23T03:41:19.351Z,65.20
2019-02-23T03:44:25.127Z,65.00
2019-02-23T03:47:30.901Z,64.02
2019-02-23T03:50:48.475Z,65.09
2019-02-23T03:53:44.171Z,63.81
2019-02-23T03:56:49.926Z,63.74
2019-02-23T03:59:55.906Z,65.41
2019-02-23T04:03:01.726Z,66.47
2019-02-23T04:06:08.575Z,66.43
2019-02-23T04:09:14.317Z,65.67
2019-02-23T04:12:20.087Z,65.41
2019-02-23T04:15:26.933Z,64.39
2019-02-23T04:18:32.687Z,64.07
2019-02-23T04:21:38.560Z,64.88
2019-02-23T04:24:44.417Z,66.56
2019-02-23T04:27:50.271Z,66.27
2019-02-23T04:30:58.273Z,66.59
2019-02-23T04:34:04.133Z,66.41
2019-02-23T04:37:09.893Z,66.64
2019-02-23T04:40:15.777Z,66.92
2019-02-23T04:43:21.560Z,66.66
2019-02-23T04:46:27.332Z,67.35
2019-02-23T04:49:33.199Z,67.30
2019-02-23T04:52:39.053Z,66.35
2019-02-23T04:55:44.805Z,65.43
2019-02-23T04:58:50.582Z,67.42
2019-02-23T05:01:56.357Z,66.15
2019-02-23T05:05:02.116Z,66.66
2019-02-23T05:08:08.962Z,67.10
2019-02-23T05:11:14.736Z,66.66
2019-02-23T05:14:20.547Z,67.89
2019-02-23T05:17:26.318Z,66.05
2019-02-23T05:20:32.126Z,65.84
2019-02-23T05:23:37.887Z,65.65
2019-02-23T05:26:43.647Z,65.67
2019-02-23T05:29:49.403Z,68.23
2019-02-23T05:32:55.197Z,67.58
2019-02-23T05:36:00.951Z,68.50
2019-02-23T05:39:07.369Z,69.38
2019-02-23T05:42:13.173Z,69.96
2019-02-23T05:45:19.034Z,68.07
2019-02-23T05:48:24.814Z,68.18
2019-02-23T05:51:38.774Z,67.29
2019-02-23T05:54:39.153Z,65.79
2019-02-23T05:57:44.911Z,65.41
2019-02-23T06:00:50.689Z,67.06
2019-02-23T06:03:56.640Z,65.58
2019-02-23T06:07:02.757Z,66.47
2019-02-23T06:10:10.411Z,65.29
2019-02-23T06:13:18.440Z,65.28
2019-02-23T06:16:24.217Z,64.86
2019-02-23T06:19:30.007Z,65.86
2019-02-23T06:22:35.874Z,66.07
2019-02-23T06:25:41.645Z,65.68
2019-02-23T06:28:47.416Z,65.38
2019-02-23T06:31:53.422Z,65.67
2019-02-23T06:34:59.206Z,66.77
2019-02-23T06:38:05.076Z,65.67
2019-02-23T06:41:10.866Z,66.53
2019-02-23T06:44:16.630Z,66.65
2019-02-23T06:47:22.398Z,65.94
2019-02-23T06:50:28.182Z,66.71
2019-02-23T06:53:33.974Z,65.37
2019-02-23T06:56:39.756Z,64.25
2019-02-23T06:59:45.657Z,63.98
2019-02-23T07:02:51.549Z,61.69
2019-02-23T07:05:57.318Z,61.21
2019-02-23T07:09:03.461Z,62.25
2019-02-23T07:12:10.021Z,62.35
2019-02-23T07:15:16.147Z,63.65
2019-02-23T07:18:21.915Z,63.21
2019-02-23T07:21:27.724Z,63.69
2019-02-23T07:24:33.517Z,62.95
2019-02-23T07:27:42.294Z,62.41
2019-02-23T07:30:48.057Z,60.52
2019-02-23T07:33:53.962Z,61.20
2019-02-23T07:36:59.723Z,60.84
2019-02-23T07:40:05.853Z,60.47
2019-02-23T07:43:14.996Z,61.30
2019-02-23T07:46:20.863Z,60.21
2019-02-23T07:49:26.663Z,60.31
2019-02-23T07:52:32.533Z,56.75
2019-02-23T07:55:38.528Z,55.49
2019-02-23T07:58:47.484Z,55.24
2019-02-23T08:01:53.379Z,55.32
2019-02-23T08:04:59.166Z,54.44
2019-02-23T08:08:05.007Z,53.87
2019-02-23T08:11:11.769Z,54.84
2019-02-23T08:14:20.174Z,53.46
2019-02-23T08:17:25.925Z,53.77
2019-02-23T08:20:31.700Z,52.83
2019-02-23T08:23:37.508Z,53.06
2019-02-23T08:26:43.371Z,53.56
2019-02-23T08:29:49.264Z,52.39
2019-02-23T08:32:55.062Z,50.11
2019-02-23T08:36:01.049Z,50.39
2019-02-23T08:39:07.210Z,49.58
2019-02-23T08:42:49.329Z,49.36
2019-02-23T08:45:55.596Z,49.73
2019-02-23T08:49:01.514Z,46.63
2019-02-23T08:52:08.608Z,45.29
2019-02-23T08:55:16.825Z,46.26
2019-02-23T08:58:22.802Z,46.20
2019-02-23T09:01:28.679Z,46.00
2019-02-23T09:04:34.492Z,46.62
2019-02-23T09:07:40.270Z,46.33
2019-02-23T09:10:46.152Z,45.48
2019-02-23T09:13:52.006Z,43.64
2019-02-23T09:16:57.788Z,45.20
2019-02-23T09:20:03.681Z,45.11
2019-02-23T09:23:09.442Z,45.54
2019-02-23T09:26:15.224Z,42.11
2019-02-23T09:29:43.518Z,43.30
2019-02-23T09:32:49.429Z,43.53
2019-02-23T09:35:57.062Z,43.79
2019-02-23T09:39:02.939Z,44.79
2019-02-23T09:42:10.379Z,45.93
2019-02-23T09:45:16.280Z,46.87
2019-02-23T09:48:22.023Z,46.25
2019-02-23T09:51:43.796Z,47.07
2019-02-23T09:54:50.007Z,46.04
2019-02-23T09:57:55.831Z,46.80
2019-02-23T10:01:02.723Z,46.37
2019-02-23T10:04:09.478Z,45.03
2019-02-23T10:07:15.709Z,46.17
2019-02-23T10:10:23.410Z,45.60
2019-02-23T10:13:29.287Z,45.56
2019-02-23T10:16:35.186Z,45.23
2019-02-23T10:19:40.945Z,45.88
2019-02-23T10:22:49.690Z,44.71
2019-02-23T10:25:55.573Z,44.34
2019-02-23T10:29:01.451Z,43.76
2019-02-23T10:32:07.310Z,43.58
2019-02-23T10:35:13.656Z,43.92
2019-02-23T10:38:19.454Z,42.56
2019-02-23T10:41:26.269Z,42.30
2019-02-23T10:44:32.121Z,41.10
2019-02-23T10:47:38.110Z,41.16
2019-02-23T10:50:49.197Z,41.42
2019-02-23T10:54:03.528Z,41.43
2019-02-23T10:57:10.603Z,43.14
2019-02-23T11:00:22.557Z,41.13
2019-02-23T11:03:30.733Z,42.49
2019-02-23T11:06:39.338Z,42.65
2019-02-23T11:09:45.420Z,41.40
2019-02-23T11:12:53.278Z,41.29
2019-02-23T11:15:59.205Z,42.99
2019-02-23T11:19:05.166Z,40.70
2019-02-23T11:22:11.302Z,41.20
2019-02-23T11:25:17.561Z,42.46
2019-02-23T11:28:23.781Z,41.94
2019-02-23T11:31:29.584Z,41.29
2019-02-23T11:34:35.344Z,41.75
2019-02-23T11:37:41.221Z,41.19
2019-02-23T11:40:47.141Z,42.37
2019-02-23T11:43:52.925Z,40.55
2019-02-23T11:47:00.469Z,40.91
2019-02-23T11:50:07.435Z,41.21
2019-02-23T11:53:13.815Z,40.23
2019-02-23T11:56:19.625Z,38.72
2019-02-23T11:59:25.476Z,39.45
2019-02-23T12:02:31.353Z,39.08
2019-02-23T12:05:39.453Z,40.44
2019-02-23T12:08:46.329Z,39.20
2019-02-23T12:11:54.590Z,38.29
2019-02-23T12:15:00.483Z,37.88
2019-02-23T12:18:06.334Z,39.32
2019-02-23T12:21:12.301Z,39.08
2019-02-23T12:24:18.073Z,37.58
2019-02-23T12:27:28.826Z,36.97
2019-02-23T12:30:37.554Z,36.98
2019-02-23T12:33:50.543Z,37.58
2019-02-23T12:37:02.757Z,37.59
2019-02-23T12:40:10.683Z,38.30
2019-02-23T12:43:22.764Z,39.37
2019-02-23T12:46:28.503Z,38.69
2019-02-23T12:49:34.520Z,36.93
2019-02-23T12:52:40.390Z,38.59
2019-02-23T12:55:46.195Z,38.16
2019-02-23T12:58:52.169Z,38.54
2019-02-23T13:01:58.033Z,40.55
2019-02-23T13:05:03.947Z,37.79
2019-02-23T13:08:09.927Z,37.89
2019-02-23T13:11:15.847Z,38.10
2019-02-23T13:14:43.985Z,38.15
2019-02-23T13:18:24.770Z,38.66
2019-02-23T13:21:52.127Z,39.08
2019-02-23T13:25:23.001Z,37.79
2019-02-23T13:28:52.433Z,37.83
2019-02-23T13:32:36.079Z,38.24
2019-02-23T13:35:58.569Z,38.54
2019-02-23T13:39:41.498Z,38.28
2019-02-23T13:43:28.546Z,38.22
2019-02-23T13:47:11.569Z,39.01
2019-02-23T13:50:53.940Z,38.09
2019-02-23T13:54:17.054Z,37.49
2019-02-23T13:57:52.008Z,37.78
2019-02-23T14:01:21.936Z,37.63
2019-02-23T14:04:48.143Z,39.13
2019-02-23T14:08:17.560Z,38.76
2019-02-23T14:11:48.435Z,39.20
2019-02-23T14:15:22.068Z,38.94
2019-02-23T14:19:07.585Z,39.39
2019-02-23T14:23:05.529Z,38.69
2019-02-23T14:27:12.822Z,39.88
2019-02-23T14:31:08.476Z,40.19
2019-02-23T14:35:07.359Z,41.42
2019-02-23T14:38:42.086Z,38.75
2019-02-23T14:42:18.929Z,40.51
2019-02-23T14:45:42.730Z,40.55
2019-02-23T14:49:17.598Z,41.80
2019-02-23T14:52:58.721Z,41.80
2019-02-23T14:56:48.499Z,43.49
2019-02-23T15:00:22.005Z,43.83
2019-02-23T15:03:55.599Z,45.57
2019-02-23T15:07:43.904Z,45.23
2019-02-23T15:11:11.792Z,45.79
2019-02-23T15:14:51.707Z,45.88
2019-02-23T15:18:50.689Z,45.76
2019-02-23T15:22:36.342Z,45.76
2019-02-23T15:26:10.815Z,45.96
2019-02-23T15:29:56.584Z,46.25
2019-02-23T15:33:20.533Z,46.69
2019-02-23T15:36:37.941Z,46.92
2019-02-23T15:40:11.580Z,46.53
2019-02-23T15:43:44.766Z,47.47
2019-02-23T15:47:21.893Z,48.24
2019-02-23T15:50:27.771Z,47.96
2019-02-23T15:53:33.970Z,46.72
2019-02-23T15:56:40.485Z,47.61
2019-02-23T15:59:46.453Z,46.42
2019-02-23T16:02:52.527Z,47.20
2019-02-23T16:05:58.705Z,46.32
2019-02-23T16:09:07.803Z,45.92
2019-02-23T16:12:14.017Z,45.73
2019-02-23T16:15:19.842Z,45.37
2019-02-23T16:18:25.700Z,45.87
2019-02-23T16:21:32.214Z,44.59
2019-02-23T16:24:39.112Z,46.07
2019-02-23T16:27:45.025Z,45.62
2019-02-23T16:30:50.967Z,47.42
2019-02-23T16:33:56.990Z,46.03
2019-02-23T16:37:02.851Z,45.70
2019-02-23T16:40:11.886Z,45.83
2019-02-23T16:43:17.883Z,45.60
2019-02-23T16:46:23.847Z,46.08
2019-02-23T16:49:29.786Z,45.45
2019-02-23T16:52:38.052Z,45.37
2019-02-23T16:55:50.832Z,45.57
2019-02-23T16:58:53.015Z,44.89
2019-02-23T17:01:58.803Z,45.95
2019-02-23T17:05:04.717Z,46.25
2019-02-23T17:08:10.523Z,45.84
2019-02-23T17:11:16.404Z,44.74
2019-02-23T17:14:22.210Z,44.63
2019-02-23T17:17:27.977Z,43.06
2019-02-23T17:20:33.745Z,44.15
2019-02-23T17:23:39.516Z,44.09
2019-02-23T17:26:45.341Z,45.43
2019-02-23T17:29:51.118Z,44.68
2019-02-23T17:32:56.915Z,43.58
2019-02-23T17:36:02.902Z,43.74
2019-02-23T17:39:10.675Z,44.31
2019-02-23T17:42:27.743Z,43.74
2019-02-23T17:45:27.757Z,43.44
2019-02-23T17:48:35.242Z,44.64
2019-02-23T17:51:41.123Z,42.28
2019-02-23T17:54:47.025Z,41.77
2019-02-23T17:57:55.725Z,43.29
2019-02-23T18:01:04.371Z,42.90
2019-02-23T18:04:10.172Z,43.12
2019-02-23T18:07:16.078Z,44.38
2019-02-23T18:10:21.871Z,43.49
2019-02-23T18:13:30.328Z,44.51
2019-02-23T18:16:36.167Z,44.65
2019-02-23T18:19:46.543Z,45.50
2019-02-23T18:22:53.870Z,46.34
2019-02-23T18:25:59.633Z,46.36
2019-02-23T18:29:05.569Z,46.96
2019-02-23T18:32:12.976Z,46.98
2019-02-23T18:35:18.840Z,47.48
2019-02-23T18:38:24.667Z,48.73
2019-02-23T18:41:30.485Z,47.44
2019-02-23T18:44:36.393Z,47.76
2019-02-23T18:47:42.512Z,47.82
2019-02-23T18:50:48.284Z,48.35
2019-02-23T18:53:54.344Z,47.77
2019-02-23T18:57:00.222Z,48.43
2019-02-23T19:00:08.696Z,49.12
2019-02-23T19:03:14.992Z,48.28
2019-02-23T19:06:20.860Z,47.57
2019-02-23T19:09:26.955Z,48.20
2019-02-23T19:12:32.782Z,48.48
2019-02-23T19:15:38.629Z,49.05
2019-02-23T19:18:44.422Z,48.72
2019-02-23T19:21:52.000Z,47.98
2019-02-23T19:24:58.187Z,48.60
2019-02-23T19:28:04.068Z,48.87
2019-02-23T19:31:10.164Z,48.29
2019-02-23T19:34:16.397Z,47.03
2019-02-23T19:37:22.336Z,47.21
2019-02-23T19:40:29.389Z,46.74
2019-02-23T19:43:35.438Z,47.45
2019-02-23T19:46:58.776Z,47.70
2019-02-23T19:50:11.664Z,48.53
2019-02-23T19:53:17.581Z,47.87
2019-02-23T19:56:23.475Z,47.19
2019-02-23T19:59:29.249Z,47.41
2019-02-23T20:02:35.226Z,47.21
2019-02-23T20:05:41.118Z,46.42
2019-02-23T20:08:47.100Z,47.28
2019-02-23T20:11:52.949Z,47.33
2019-02-23T20:14:58.789Z,47.06
2019-02-23T20:18:05.994Z,46.46
2019-02-23T20:21:12.043Z,47.62
2019-02-23T20:24:17.929Z,45.95
2019-02-23T20:27:23.938Z,46.34
2019-02-23T20:30:29.764Z,47.02
2019-02-23T20:33:35.579Z,47.30
2019-02-23T20:36:42.445Z,47.44
2019-02-23T20:39:48.228Z,46.29
2019-02-23T20:42:54.351Z,45.75
2019-02-23T20:46:00.151Z,46.56
2019-02-23T20:49:05.984Z,45.75
2019-02-23T20:52:11.803Z,46.27
2019-02-23T20:55:17.599Z,46.38
2019-02-23T20:58:23.398Z,46.25
2019-02-23T21:01:29.206Z,46.44
2019-02-23T21:04:35.162Z,46.71
2019-02-23T21:07:40.961Z,46.59
2019-02-23T21:10:46.855Z,47.07
2019-02-23T21:13:52.686Z,47.64
2019-02-23T21:16:58.659Z,45.88
2019-02-23T21:20:04.616Z,46.73
2019-02-23T21:23:10.992Z,46.16
2019-02-23T21:26:16.922Z,46.34
2019-02-23T21:29:22.857Z,45.50
2019-02-23T21:32:28.744Z,45.49
2019-02-23T21:35:34.534Z,45.26
2019-02-23T21:38:40.543Z,45.70
2019-02-23T21:41:46.331Z,45.63
2019-02-23T21:44:52.167Z,45.56
2019-02-23T21:47:57.940Z,46.07
2019-02-23T21:51:03.716Z,45.31
2019-02-23T21:54:10.334Z,44.89
2019-02-23T21:57:22.241Z,44.51
2019-02-23T22:00:25.520Z,45.87
2019-02-23T22:03:31.404Z,45.42
2019-02-23T22:06:37.257Z,44.93
2019-02-23T22:09:43.033Z,44.47
2019-02-23T22:12:48.811Z,43.95
2019-02-23T22:15:54.672Z,44.11
2019-02-23T22:19:00.462Z,45.18
2019-02-23T22:22:06.258Z,45.46
2019-02-23T22:25:12.121Z,45.01
2019-02-23T22:28:17.934Z,44.17
2019-02-23T22:31:23.728Z,44.29
2019-02-23T22:34:29.601Z,44.26
2019-02-23T22:37:35.370Z,43.52
2019-02-23T22:40:41.179Z,44.30
2019-02-23T22:43:46.938Z,44.49
2019-02-23T22:46:52.835Z,43.86
2019-02-23T22:49:58.755Z,44.21
2019-02-23T22:53:04.612Z,44.75
2019-02-23T22:56:10.407Z,44.39
2019-02-23T22:59:16.182Z,44.26
2019-02-23T23:02:21.959Z,44.54
2019-02-23T23:05:27.927Z,42.57
2019-02-23T23:08:33.719Z,44.14
2019-02-23T23:11:39.504Z,44.62
2019-02-23T23:14:45.278Z,44.69
2019-02-23T23:17:51.168Z,44.70
2019-02-23T23:20:56.987Z,44.44
2019-02-23T23:24:02.907Z,43.75
2019-02-23T23:27:08.776Z,45.08
2019-02-23T23:30:14.605Z,44.62
2019-02-23T23:33:20.689Z,44.21
2019-02-23T23:36:26.541Z,44.01
2019-02-23T23:39:32.421Z,43.91
2019-02-23T23:42:38.225Z,42.66
2019-02-23T23:45:44.126Z,42.58
2019-02-23T23:48:49.969Z,43.71
2019-02-23T23:51:55.865Z,43.92
2019-02-23T23:55:01.653Z,43.09
2019-02-23T23:58:07.452Z,44.43
